Time;durP1;ratioP1;P1;durP2;ratioP2;P2;SDS_P1;SDS_P2;PMS_P1;PMS_P2;Temp;Humidity;BMP_temperature;BMP_pressure;BME280_temperature;BME280_humidity;BME280_pressure;Samples;Min_cycle;Max_cycle;Signal;HPM_P1;HPM_P2
2024/01/23 00:01:06;;;;;;;7.23;1.93;;;;;;;5.25;100.00;100793.50;5011456;28;20301;-70
2024/01/23 00:03:33;;;;;;;6.00;1.97;;;;;;;5.24;100.00;100787.47;5014345;28;20238;-70
2024/01/23 00:05:59;;;;;;;6.47;1.67;;;;;;;5.23;100.00;100791.16;5014725;28;20588;-69
2024/01/23 00:08:25;;;;;;;8.00;2.03;;;;;;;5.23;100.00;100793.00;5014756;28;20204;-68
2024/01/23 00:10:52;;;;;;;4.97;1.70;;;;;;;5.22;100.00;100792.22;5016456;28;20534;-69
2024/01/23 00:13:19;;;;;;;5.40;2.23;;;;;;;5.23;100.00;100780.69;5012064;28;20227;-70
2024/01/23 00:15:46;;;;;;;2.53;1.60;;;;;;;5.24;100.00;100787.47;5014110;28;20200;-69
2024/01/23 00:18:12;;;;;;;9.73;1.77;;;;;;;5.26;100.00;100780.13;5022139;28;20204;-69
2024/01/23 00:20:38;;;;;;;5.20;1.83;;;;;;;5.28;100.00;100780.59;5019143;28;20203;-70
2024/01/23 00:23:05;;;;;;;6.00;1.90;;;;;;;5.30;100.00;100778.50;5016220;28;20701;-69
2024/01/23 00:25:31;;;;;;;3.80;1.77;;;;;;;5.31;100.00;100781.88;5017411;28;20224;-69
2024/01/23 00:27:58;;;;;;;6.77;2.10;;;;;;;5.30;100.00;100794.22;5018278;28;20211;-70
2024/01/23 00:30:26;;;;;;;11.07;1.80;;;;;;;5.27;100.00;100791.38;5020428;28;20200;-69
2024/01/23 00:32:52;;;;;;;10.67;1.77;;;;;;;5.23;100.00;100793.78;5016810;28;20232;-69
2024/01/23 00:35:18;;;;;;;6.03;1.40;;;;;;;5.21;100.00;100789.88;5018719;28;20218;-68
2024/01/23 00:37:45;;;;;;;4.33;1.63;;;;;;;5.17;100.00;100794.91;5016483;28;20207;-70
2024/01/23 00:40:12;;;;;;;4.33;1.80;;;;;;;5.17;100.00;100794.13;5016907;28;20558;-70
2024/01/23 00:42:38;;;;;;;5.17;1.60;;;;;;;5.14;100.00;100797.31;5016930;28;20235;-69
2024/01/23 00:45:05;;;;;;;3.27;1.40;;;;;;;5.11;100.00;100796.06;5018109;28;20223;-69
2024/01/23 00:47:33;;;;;;;12.80;1.80;;;;;;;5.09;100.00;100800.03;5014267;28;20211;-69
2024/01/23 00:49:59;;;;;;;4.30;1.67;;;;;;;5.05;100.00;100793.78;5018930;28;20222;-69
2024/01/23 00:52:25;;;;;;;4.77;1.70;;;;;;;5.02;100.00;100792.50;5018142;28;20223;-69
2024/01/23 00:54:51;;;;;;;9.10;1.67;;;;;;;4.98;100.00;100798.59;5017504;28;20204;-69
2024/01/23 00:57:18;;;;;;;5.10;1.50;;;;;;;4.94;100.00;100797.59;5019873;28;20202;-69
2024/01/23 00:59:44;;;;;;;6.40;1.63;;;;;;;4.90;100.00;100801.84;5021352;28;20263;-70
2024/01/23 01:02:11;;;;;;;7.57;1.80;;;;;;;4.87;100.00;100797.94;5017109;28;20726;-68
2024/01/23 01:04:41;;;;;;;3.47;1.63;;;;;;;4.84;100.00;100810.81;4998042;28;20308;-68
2024/01/23 01:07:07;;;;;;;9.93;1.80;;;;;;;4.84;100.00;100813.44;5017421;28;20199;-68
2024/01/23 01:09:33;;;;;;;2.07;1.40;;;;;;;4.83;100.00;100810.03;5020830;28;20204;-69
2024/01/23 01:11:59;;;;;;;5.10;1.20;;;;;;;4.85;100.00;100821.00;5012522;28;20227;-70
2024/01/23 01:14:26;;;;;;;6.00;1.50;;;;;;;4.86;100.00;100814.72;5014652;28;20237;-69
2024/01/23 01:16:52;;;;;;;4.37;1.33;;;;;;;4.90;100.00;100830.63;5016497;28;20222;-70
2024/01/23 01:19:18;;;;;;;8.47;2.30;;;;;;;4.92;100.00;100818.81;5019573;28;20571;-69
2024/01/23 01:21:46;;;;;;;7.67;1.50;;;;;;;4.99;100.00;100842.81;5014529;28;20220;-69
2024/01/23 01:24:13;;;;;;;10.07;1.77;;;;;;;5.02;100.00;100854.56;5013089;28;20208;-69
2024/01/23 01:26:40;;;;;;;10.30;2.07;;;;;;;5.03;100.00;100837.78;5015662;28;20224;-68
2024/01/23 01:29:06;;;;;;;7.77;1.90;;;;;;;5.02;100.00;100839.63;5017260;28;20204;-70
2024/01/23 01:31:32;;;;;;;3.30;1.13;;;;;;;5.01;100.00;100843.31;5020890;28;20234;-70
2024/01/23 01:33:59;;;;;;;1.90;1.23;;;;;;;4.98;100.00;100843.84;5012557;28;20749;-68
2024/01/23 01:36:25;;;;;;;2.80;1.30;;;;;;;4.95;100.00;100830.56;5019311;28;20658;-70
2024/01/23 01:38:53;;;;;;;10.13;1.60;;;;;;;4.92;100.00;100839.75;5016087;28;20234;-68
2024/01/23 01:41:19;;;;;;;6.67;1.87;;;;;;;4.90;100.00;100833.25;5015868;28;20199;-69
2024/01/23 01:43:45;;;;;;;10.63;1.93;;;;;;;4.88;100.00;100830.91;5015341;28;20215;-70
2024/01/23 01:46:18;;;;;;;3.63;1.30;;;;;;;4.88;100.00;100827.53;5018737;28;20225;-69
2024/01/23 01:48:46;;;;;;;7.23;1.40;;;;;;;4.87;100.00;100836.44;5016738;28;20286;-70
2024/01/23 01:51:13;;;;;;;3.80;1.30;;;;;;;4.87;100.00;100833.81;5017353;28;20570;-70
2024/01/23 01:53:41;;;;;;;12.70;1.77;;;;;;;4.86;100.00;100830.41;5015566;28;20206;-69
2024/01/23 01:56:09;;;;;;;3.37;1.37;;;;;;;4.86;100.00;100840.09;5016518;28;20281;-70
2024/01/23 01:58:37;;;;;;;5.33;1.40;;;;;;;4.87;100.00;100836.44;5018692;28;20290;-70
2024/01/23 02:01:04;;;;;;;5.50;1.30;;;;;;;4.87;100.00;100841.66;5016883;28;20196;-70
2024/01/23 02:03:30;;;;;;;10.73;1.70;;;;;;;4.87;100.00;100845.03;5017964;28;20984;-70
2024/01/23 02:05:58;;;;;;;9.90;1.90;;;;;;;4.89;100.00;100842.16;5016698;28;20221;-69
2024/01/23 02:08:26;;;;;;;5.13;1.50;;;;;;;4.90;100.00;100841.88;5017543;28;20203;-70
2024/01/23 02:10:54;;;;;;;6.93;1.60;;;;;;;4.93;100.00;100845.78;5015266;28;20196;-69
2024/01/23 02:13:22;;;;;;;6.83;1.50;;;;;;;4.92;100.00;100852.06;5018514;28;20838;-70
2024/01/23 02:15:48;;;;;;;9.67;1.70;;;;;;;4.91;100.00;100851.28;5016216;28;20204;-70
2024/01/23 02:18:15;;;;;;;9.47;2.00;;;;;;;4.92;100.00;100859.91;5015587;28;20203;-69
2024/01/23 02:20:41;;;;;;;7.60;1.43;;;;;;;4.93;100.00;100864.84;5015438;28;20204;-67
2024/01/23 02:23:11;;;;;;;5.93;1.67;;;;;;;4.95;100.00;100857.50;5013802;28;20228;-69
2024/01/23 02:25:39;;;;;;;13.67;1.97;;;;;;;4.99;100.00;100868.97;5010098;28;20227;-70
2024/01/23 02:28:05;;;;;;;8.83;1.17;;;;;;;5.02;100.00;100857.19;4999548;28;20208;-70
2024/01/23 02:30:33;;;;;;;7.77;1.67;;;;;;;5.04;100.00;100862.91;5013753;28;20206;-70
2024/01/23 02:32:59;;;;;;;6.07;1.40;;;;;;;5.05;100.00;100873.09;5013366;28;20258;-69
2024/01/23 02:35:25;;;;;;;8.83;1.60;;;;;;;5.08;100.00;100871.75;5015185;28;20216;-70
2024/01/23 02:37:52;;;;;;;10.20;2.27;;;;;;;5.09;100.00;100874.09;5015904;28;20220;-70
2024/01/23 02:40:18;;;;;;;6.20;1.60;;;;;;;5.10;100.00;100874.84;5013327;28;20204;-70
2024/01/23 02:42:46;;;;;;;9.63;1.60;;;;;;;5.10;100.00;100880.88;5017608;28;20238;-69
2024/01/23 02:45:12;;;;;;;5.30;1.60;;;;;;;5.11;100.00;100876.41;5011813;28;20212;-70
2024/01/23 02:47:38;;;;;;;8.20;1.50;;;;;;;5.12;100.00;100873.50;5021481;28;20215;-70
2024/01/23 02:50:06;;;;;;;6.60;1.30;;;;;;;5.11;100.00;100871.16;5015533;28;20202;-70
2024/01/23 02:52:32;;;;;;;4.50;1.27;;;;;;;5.11;100.00;100879.03;5016177;28;20685;-70
2024/01/23 02:54:59;;;;;;;6.93;1.53;;;;;;;5.13;100.00;100869.06;5010497;28;20219;-70
2024/01/23 02:57:25;;;;;;;11.47;2.07;;;;;;;5.12;100.00;100868.28;5014032;28;20601;-69
2024/01/23 02:59:54;;;;;;;8.97;2.13;;;;;;;5.13;100.00;100869.81;5011634;28;20208;-69
2024/01/23 03:02:20;;;;;;;3.97;1.33;;;;;;;5.14;100.00;100879.22;5013501;28;20229;-69
2024/01/23 03:04:46;;;;;;;8.73;1.67;;;;;;;5.16;100.00;100889.44;5008771;28;20211;-70
2024/01/23 03:07:13;;;;;;;5.87;1.60;;;;;;;5.16;100.00;100882.38;5016687;28;20247;-69
2024/01/23 03:09:40;;;;;;;4.93;1.47;;;;;;;5.17;100.00;100886.53;5017547;28;20360;-70
2024/01/23 03:12:14;;;;;;;11.20;1.83;;;;;;;5.18;100.00;100882.84;4993607;28;20228;-69
2024/01/23 03:14:41;;;;;;;5.73;1.67;;;;;;;5.16;100.00;100887.59;5013878;28;20204;-70
2024/01/23 03:17:08;;;;;;;6.23;1.60;;;;;;;5.15;100.00;100896.50;4996127;28;20214;-68
2024/01/23 03:19:35;;;;;;;4.40;1.40;;;;;;;5.13;100.00;100901.25;5014259;28;20211;-69
2024/01/23 03:22:01;;;;;;;4.77;1.07;;;;;;;5.11;100.00;100898.13;4999477;28;20231;-69
2024/01/23 03:24:27;;;;;;;9.63;2.20;;;;;;;5.11;100.00;100911.22;5016177;28;20204;-68
2024/01/23 03:26:53;;;;;;;9.17;1.77;;;;;;;5.13;100.00;100924.03;5013542;28;20230;-69
2024/01/23 03:29:20;;;;;;;8.90;1.67;;;;;;;5.15;100.00;100935.00;5012175;28;20803;-70
2024/01/23 03:31:46;;;;;;;11.03;1.90;;;;;;;5.14;100.00;100949.13;5013468;28;20238;-69
2024/01/23 03:34:14;;;;;;;5.63;1.50;;;;;;;5.15;100.00;100955.94;5012215;28;20547;-69
2024/01/23 03:36:40;;;;;;;7.70;1.50;;;;;;;5.14;100.00;100962.22;5017724;28;20210;-68
2024/01/23 03:39:07;;;;;;;5.73;1.70;;;;;;;5.11;100.00;100971.41;5010589;28;20211;-69
2024/01/23 03:41:35;;;;;;;3.93;1.13;;;;;;;5.05;100.00;100985.63;5016429;28;20307;-70
2024/01/23 03:44:03;;;;;;;5.27;1.20;;;;;;;5.01;100.00;100978.59;5012245;28;20213;-69
2024/01/23 03:46:29;;;;;;;5.10;1.20;;;;;;;4.96;100.00;100982.06;5016326;28;20224;-69
2024/01/23 03:48:54;;;;;;;2.97;1.20;;;;;;;4.89;100.00;100970.34;5016412;28;20196;-69
2024/01/23 03:51:23;;;;;;;4.37;1.07;;;;;;;4.85;100.00;100967.53;4995770;28;20204;-69
2024/01/23 03:53:50;;;;;;;2.37;1.10;;;;;;;4.79;100.00;100955.56;5012921;28;20210;-69
2024/01/23 03:56:17;;;;;;;6.97;1.27;;;;;;;4.76;100.00;100960.56;5011990;28;20207;-69
2024/01/23 03:58:43;;;;;;;2.33;0.90;;;;;;;4.71;100.00;100961.38;5011841;28;20658;-68
2024/01/23 04:01:10;;;;;;;3.00;0.90;;;;;;;4.67;100.00;100959.59;5019887;28;20223;-69
2024/01/23 04:03:36;;;;;;;3.60;1.27;;;;;;;4.62;100.00;100978.72;5013776;28;20574;-69
2024/01/23 04:06:02;;;;;;;4.83;0.90;;;;;;;4.58;100.00;100974.31;5010604;28;20235;-69
2024/01/23 04:08:30;;;;;;;2.03;0.80;;;;;;;4.53;100.00;100972.56;5014367;28;20602;-68
2024/01/23 04:10:57;;;;;;;6.17;1.00;;;;;;;4.50;100.00;100967.88;5010794;28;20202;-70
2024/01/23 04:13:23;;;;;;;5.27;0.70;;;;;;;4.48;100.00;100977.81;5012885;28;20237;-69
2024/01/23 04:15:50;;;;;;;3.57;0.80;;;;;;;4.45;100.00;100983.59;5013466;28;20202;-69
2024/01/23 04:18:16;;;;;;;2.50;0.73;;;;;;;4.44;100.00;100984.66;5011751;28;20213;-69
2024/01/23 04:20:43;;;;;;;5.63;1.00;;;;;;;4.43;100.00;100971.84;5014371;28;20252;-69
2024/01/23 04:23:09;;;;;;;4.40;1.03;;;;;;;4.39;100.00;100961.16;5013425;28;20212;-69
2024/01/23 04:25:37;;;;;;;2.90;0.87;;;;;;;4.37;100.00;100967.72;5011136;28;20308;-69
2024/01/23 04:28:04;;;;;;;4.50;0.80;;;;;;;4.34;100.00;100963.03;5014734;28;20196;-69
2024/01/23 04:30:30;;;;;;;6.57;1.00;;;;;;;4.31;100.00;100947.91;5011839;28;20572;-69
2024/01/23 04:32:56;;;;;;;2.23;0.70;;;;;;;4.28;100.00;100958.91;5011586;28;20242;-69
2024/01/23 04:35:23;;;;;;;2.33;0.70;;;;;;;4.24;100.00;100970.94;5013368;28;20198;-69
2024/01/23 04:37:49;;;;;;;1.83;0.60;;;;;;;4.20;100.00;100964.75;5013568;28;20541;-69
2024/01/23 04:40:15;;;;;;;2.40;1.00;;;;;;;4.17;100.00;100966.06;5016185;28;20212;-68
2024/01/23 04:42:43;;;;;;;2.30;0.70;;;;;;;4.13;100.00;100951.97;5009444;28;20229;-68
2024/01/23 04:45:10;;;;;;;1.60;0.70;;;;;;;4.09;100.00;100963.25;5012944;28;20575;-69
2024/01/23 04:47:37;;;;;;;2.43;0.60;;;;;;;4.07;100.00;100981.03;5012106;28;20328;-70
2024/01/23 04:50:03;;;;;;;0.60;0.47;;;;;;;4.03;100.00;100982.63;5011983;28;20201;-68
2024/01/23 04:52:30;;;;;;;1.53;0.77;;;;;;;4.02;100.00;100997.53;5013643;28;20220;-70
2024/01/23 04:54:56;;;;;;;2.97;0.80;;;;;;;4.00;100.00;100991.00;5012733;28;20699;-69
2024/01/23 04:57:24;;;;;;;1.13;0.80;;;;;;;3.98;100.00;100999.13;5014582;28;20637;-69
2024/01/23 04:59:52;;;;;;;5.27;0.70;;;;;;;3.97;100.00;101022.91;5015920;28;20671;-69
2024/01/23 05:02:18;;;;;;;4.63;0.60;;;;;;;3.94;100.00;101021.59;5015752;28;20225;-69
2024/01/23 05:04:45;;;;;;;0.50;0.50;;;;;;;3.92;100.00;101026.31;5017079;28;20577;-69
2024/01/23 05:07:11;;;;;;;0.63;0.60;;;;;;;3.88;100.00;101032.38;5019242;28;20221;-69
2024/01/23 05:09:38;;;;;;;1.17;0.40;;;;;;;3.83;100.00;101037.63;5017861;28;20209;-69
2024/01/23 05:12:04;;;;;;;1.53;0.50;;;;;;;3.76;100.00;101034.50;5019011;28;20240;-69
2024/01/23 05:14:31;;;;;;;0.50;0.50;;;;;;;3.69;100.00;101041.88;5018470;28;20299;-69
2024/01/23 05:16:58;;;;;;;0.70;0.70;;;;;;;3.64;100.00;101047.09;5018666;28;20201;-68
2024/01/23 05:19:25;;;;;;;4.27;0.67;;;;;;;3.55;100.00;101046.09;5018949;28;20279;-69
2024/01/23 05:21:51;;;;;;;0.87;0.77;;;;;;;3.47;100.00;101036.97;5015549;28;20232;-69
2024/01/23 05:24:17;;;;;;;2.63;0.50;;;;;;;3.39;100.00;101044.59;5015754;28;20219;-69
2024/01/23 05:26:44;;;;;;;1.03;0.50;;;;;;;3.33;100.00;101056.09;5015351;28;20563;-69
2024/01/23 05:29:10;;;;;;;1.50;0.60;;;;;;;3.27;100.00;101065.75;5015351;28;20240;-69
2024/01/23 05:31:37;;;;;;;2.80;0.60;;;;;;;3.23;100.00;101077.00;5021919;28;20759;-69
2024/01/23 05:34:04;;;;;;;1.67;0.60;;;;;;;3.18;100.00;101088.25;5018441;28;20208;-67
2024/01/23 05:36:31;;;;;;;0.77;0.50;;;;;;;3.13;100.00;101096.06;5018994;28;20693;-67
2024/01/23 05:38:57;;;;;;;0.50;0.50;;;;;;;3.10;100.00;101091.38;5022530;28;20200;-69
2024/01/23 05:41:24;;;;;;;0.50;0.50;;;;;;;3.09;100.00;101099.47;5016244;28;20540;-68
2024/01/23 05:43:51;;;;;;;0.80;0.60;;;;;;;3.08;100.00;101101.31;5036631;22;20710;-70
2024/01/23 05:46:18;;;;;;;2.50;0.73;;;;;;;3.10;100.00;101098.41;5014098;28;20220;-70
2024/01/23 05:48:44;;;;;;;2.37;0.80;;;;;;;3.11;100.00;101105.22;5016872;28;20419;-69
2024/01/23 05:51:12;;;;;;;1.63;0.57;;;;;;;3.12;100.00;101119.81;5015771;28;20567;-69
2024/01/23 05:53:38;;;;;;;1.57;0.67;;;;;;;3.13;100.00;101121.38;5022014;28;20231;-70
2024/01/23 05:56:05;;;;;;;1.57;0.60;;;;;;;3.13;100.00;101121.38;5016311;28;20208;-68
2024/01/23 05:58:31;;;;;;;0.50;0.50;;;;;;;3.13;100.00;101119.56;5018746;28;20215;-70
2024/01/23 06:00:58;;;;;;;0.53;0.53;;;;;;;3.13;100.00;101126.59;5020104;28;20208;-69
2024/01/23 06:03:24;;;;;;;1.67;0.70;;;;;;;3.11;100.00;101133.91;5014013;28;20705;-69
2024/01/23 06:05:50;;;;;;;2.43;0.83;;;;;;;3.08;100.00;101124.78;5016169;28;20218;-69
2024/01/23 06:08:18;;;;;;;1.57;0.60;;;;;;;3.05;100.00;101142.75;5026117;28;20231;-70
2024/01/23 06:10:45;;;;;;;2.27;0.80;;;;;;;2.99;100.00;101128.16;5023502;28;20200;-69
2024/01/23 06:13:11;;;;;;;3.63;1.13;;;;;;;2.95;100.00;101138.34;5023858;28;20289;-69
2024/01/23 06:15:37;;;;;;;7.23;1.00;;;;;;;2.92;100.00;101145.91;5019983;28;20571;-70
2024/01/23 06:18:07;;;;;;;2.00;1.20;;;;;;;2.88;100.00;101150.88;5018191;28;20204;-69
2024/01/23 06:20:33;;;;;;;3.33;1.23;;;;;;;2.84;100.00;101151.63;5020110;28;20253;-70
2024/01/23 06:23:00;;;;;;;1.37;0.80;;;;;;;2.81;100.00;101152.16;5021133;28;20230;-70
2024/01/23 06:25:28;;;;;;;3.90;0.80;;;;;;;2.79;100.00;101154.22;5023922;28;20674;-68
2024/01/23 06:27:54;;;;;;;3.63;0.90;;;;;;;2.76;100.00;101149.56;5015468;28;20237;-69
2024/01/23 06:30:21;;;;;;;5.20;1.07;;;;;;;2.77;100.00;101167.56;5014980;28;20567;-68
2024/01/23 06:32:47;;;;;;;4.23;1.10;;;;;;;2.78;100.00;101181.34;5014341;28;20232;-68
2024/01/23 06:35:13;;;;;;;7.90;1.10;;;;;;;2.81;100.00;101194.66;5015647;28;20747;-69
2024/01/23 06:37:40;;;;;;;4.17;1.03;;;;;;;2.83;100.00;101197.81;5027326;28;20206;-69
2024/01/23 06:40:08;;;;;;;4.50;1.20;;;;;;;2.86;100.00;101188.69;5025213;28;20734;-70
2024/01/23 06:42:36;;;;;;;6.10;1.30;;;;;;;2.88;100.00;101197.00;5021905;28;20362;-70
2024/01/23 06:45:03;;;;;;;3.80;1.07;;;;;;;2.92;100.00;101203.28;5019999;28;20196;-69
2024/01/23 06:47:29;;;;;;;6.03;1.10;;;;;;;2.97;100.00;101204.09;5024008;28;20224;-70
2024/01/23 06:49:56;;;;;;;3.53;1.20;;;;;;;3.06;100.00;101199.13;5028320;28;20221;-70
2024/01/23 06:52:22;;;;;;;3.03;1.30;;;;;;;3.10;100.00;101213.19;5020718;28;20231;-69
2024/01/23 06:54:48;;;;;;;3.63;1.50;;;;;;;3.15;100.00;101221.81;5021685;28;20391;-69
2024/01/23 06:57:14;;;;;;;5.33;1.50;;;;;;;3.20;100.00;101229.66;5024054;28;20581;-69
2024/01/23 06:59:41;;;;;;;3.27;1.53;;;;;;;3.23;100.00;101236.19;5023487;28;20209;-70
2024/01/23 07:02:08;;;;;;;3.93;1.23;;;;;;;3.27;100.00;101242.44;5015200;28;20231;-68
2024/01/23 07:04:34;;;;;;;5.20;1.43;;;;;;;3.28;100.00;101250.03;5012559;28;20215;-69
2024/01/23 07:07:00;;;;;;;3.50;1.33;;;;;;;3.32;100.00;101256.28;5021425;28;20238;-69
2024/01/23 07:09:27;;;;;;;6.80;2.07;;;;;;;3.35;100.00;101260.19;5022987;28;20325;-69
2024/01/23 07:11:54;;;;;;;6.87;1.47;;;;;;;3.36;100.00;101262.53;5021277;28;20519;-68
2024/01/23 07:14:21;;;;;;;4.73;1.57;;;;;;;3.37;100.00;101269.31;5013913;28;20818;-69
2024/01/23 07:16:48;;;;;;;10.80;1.70;;;;;;;3.35;100.00;101268.81;5021907;28;20200;-69
2024/01/23 07:19:15;;;;;;;9.73;1.80;;;;;;;3.34;100.00;101276.91;5016426;28;20200;-69
2024/01/23 07:21:41;;;;;;;8.27;1.70;;;;;;;3.35;100.00;101284.47;5016670;28;20200;-69
2024/01/23 07:24:07;;;;;;;3.73;1.50;;;;;;;3.36;100.00;101285.22;5017407;28;20231;-69
2024/01/23 07:26:34;;;;;;;5.17;1.77;;;;;;;3.34;100.00;101277.69;5019251;28;20576;-68
2024/01/23 07:29:02;;;;;;;10.13;1.50;;;;;;;3.32;100.00;101271.94;5017979;28;20838;-69
2024/01/23 07:31:29;;;;;;;6.03;1.30;;;;;;;3.29;100.00;101282.13;5017451;28;20231;-69
2024/01/23 07:33:56;;;;;;;2.93;1.43;;;;;;;3.27;100.00;101298.03;5016286;28;20270;-69
2024/01/23 07:36:23;;;;;;;3.33;1.17;;;;;;;3.26;100.00;101324.41;5017910;28;20211;-69
2024/01/23 07:38:49;;;;;;;3.83;1.50;;;;;;;3.28;100.00;101323.09;5022140;28;20843;-69
2024/01/23 07:41:16;;;;;;;2.50;1.40;;;;;;;3.30;100.00;101323.63;5018094;28;20286;-69
2024/01/23 07:43:42;;;;;;;5.10;1.50;;;;;;;3.34;100.00;101323.88;5019535;28;20652;-69
2024/01/23 07:46:08;;;;;;;13.73;1.60;;;;;;;3.37;100.00;101336.44;5018141;28;20219;-69
2024/01/23 07:48:35;;;;;;;6.07;1.40;;;;;;;3.42;100.00;101336.44;5015809;28;20358;-69
2024/01/23 07:51:04;;;;;;;4.37;1.40;;;;;;;3.46;100.00;101340.88;5018863;28;20674;-70
2024/01/23 07:53:32;;;;;;;4.10;1.50;;;;;;;3.50;100.00;101335.91;5018098;28;20228;-69
2024/01/23 07:55:58;;;;;;;8.93;2.20;;;;;;;3.56;100.00;101340.06;5019353;28;20212;-68
2024/01/23 07:58:24;;;;;;;9.23;2.37;;;;;;;3.60;100.00;101354.19;5017465;28;20203;-69
2024/01/23 08:00:51;;;;;;;5.80;1.20;;;;;;;3.66;100.00;101358.38;5019377;28;20379;-70
2024/01/23 08:03:17;;;;;;;7.90;1.90;;;;;;;3.71;100.00;101353.94;5017300;28;20225;-69
2024/01/23 08:05:44;;;;;;;6.40;1.33;;;;;;;3.76;100.00;101340.88;5013594;28;20208;-70
2024/01/23 08:08:12;;;;;;;3.77;1.33;;;;;;;3.79;100.00;101342.19;5017639;28;20227;-69
2024/01/23 08:10:38;;;;;;;7.90;1.40;;;;;;;3.83;100.00;101353.69;5019291;28;20208;-69
2024/01/23 08:13:04;;;;;;;8.33;1.67;;;;;;;3.87;100.00;101349.47;5014781;28;20250;-69
2024/01/23 08:15:31;;;;;;;4.43;1.53;;;;;;;3.90;100.00;101351.59;5017723;28;20216;-69
2024/01/23 08:17:57;;;;;;;5.60;1.50;;;;;;;3.95;100.00;101347.13;5018436;28;20207;-69
2024/01/23 08:20:23;;;;;;;7.50;1.47;;;;;;;3.99;100.00;101348.16;5020437;28;20739;-69
2024/01/23 08:22:50;;;;;;;4.90;1.40;;;;;;;4.03;100.00;101366.72;5018025;28;20552;-69
2024/01/23 08:25:17;;;;;;;4.53;1.40;;;;;;;4.06;100.00;101363.59;5017712;28;20224;-70
2024/01/23 08:27:44;;;;;;;7.53;1.90;;;;;;;4.10;100.00;101372.47;5018690;28;20229;-70
2024/01/23 08:30:11;;;;;;;2.47;1.50;;;;;;;4.13;100.00;101366.72;5015224;28;20204;-70
2024/01/23 08:32:38;;;;;;;8.90;1.80;;;;;;;4.16;100.00;101361.75;5019036;28;20236;-69
2024/01/23 08:35:06;;;;;;;6.73;1.47;;;;;;;4.17;100.00;101376.38;5019996;28;20555;-70
2024/01/23 08:37:32;;;;;;;3.53;1.00;;;;;;;4.20;100.00;101375.09;5010293;28;20543;-68
2024/01/23 08:39:58;;;;;;;8.43;2.07;;;;;;;4.24;100.00;101374.28;5017972;28;20205;-70
2024/01/23 08:42:27;;;;;;;7.03;1.40;;;;;;;4.28;100.00;101377.13;5019430;28;20279;-69
2024/01/23 08:44:55;;;;;;;6.50;1.40;;;;;;;4.29;100.00;101376.09;5019726;28;20204;-69
2024/01/23 08:47:21;;;;;;;6.57;1.40;;;;;;;4.31;100.00;101381.84;5017716;28;20703;-69
2024/01/23 08:49:47;;;;;;;9.27;1.60;;;;;;;4.33;100.00;101398.06;5017140;28;20213;-70
2024/01/23 08:52:14;;;;;;;3.87;1.30;;;;;;;4.37;100.00;101392.06;5017245;28;20519;-70
2024/01/23 08:54:40;;;;;;;5.20;1.60;;;;;;;4.39;100.00;101381.31;5019298;28;20260;-68
2024/01/23 08:57:08;;;;;;;8.30;1.43;;;;;;;4.42;100.00;101386.81;5020883;28;20282;-70
2024/01/23 08:59:38;;;;;;;8.33;1.57;;;;;;;4.46;100.00;101385.22;5017094;28;20650;-70
2024/01/23 09:02:04;;;;;;;3.57;1.60;;;;;;;4.51;100.00;101384.44;5019713;28;20224;-69
2024/01/23 09:04:31;;;;;;;7.23;1.53;;;;;;;4.54;100.00;101387.28;5018798;28;20208;-69
2024/01/23 09:06:57;;;;;;;6.83;1.77;;;;;;;4.58;100.00;101387.53;5018727;28;20196;-69
2024/01/23 09:09:23;;;;;;;7.47;1.60;;;;;;;4.62;100.00;101380.75;5020449;28;20748;-70
2024/01/23 09:11:50;;;;;;;4.67;1.77;;;;;;;4.66;100.00;101390.41;5018909;28;20262;-70
2024/01/23 09:14:16;;;;;;;5.53;1.47;;;;;;;4.71;100.00;101393.00;5020321;28;20694;-70
2024/01/23 09:16:44;;;;;;;6.17;1.60;;;;;;;4.75;100.00;101407.13;5019971;28;20235;-70
2024/01/23 09:19:10;;;;;;;4.67;1.30;;;;;;;4.81;100.00;101428.81;5020618;28;20663;-69
2024/01/23 09:21:36;;;;;;;8.90;2.47;;;;;;;4.85;100.00;101435.88;5018738;28;20223;-69
2024/01/23 09:24:03;;;;;;;3.90;1.40;;;;;;;4.90;100.00;101429.81;5021765;28;20235;-69
2024/01/23 09:26:29;;;;;;;3.67;1.20;;;;;;;4.93;100.00;101432.69;5017569;28;20250;-70
2024/01/23 09:28:56;;;;;;;6.07;2.00;;;;;;;4.98;100.00;101440.53;5023240;28;20231;-70
2024/01/23 09:31:22;;;;;;;6.60;2.03;;;;;;;5.03;100.00;101443.13;5017491;28;20804;-70
2024/01/23 09:33:50;;;;;;;2.40;1.10;;;;;;;5.07;100.00;101448.63;5016034;28;20228;-69
2024/01/23 09:36:17;;;;;;;4.50;1.50;;;;;;;5.13;100.00;101468.50;5017986;28;20200;-68
2024/01/23 09:38:44;;;;;;;7.43;2.17;;;;;;;5.16;100.00;101468.75;5017184;28;20215;-68
2024/01/23 09:41:12;;;;;;;3.17;1.20;;;;;;;5.20;100.00;101468.97;5019492;28;20212;-70
2024/01/23 09:43:40;;;;;;;4.47;1.30;;;;;;;5.24;100.00;101462.16;5017311;28;20246;-69
2024/01/23 09:46:11;;;;;;;4.07;1.30;;;;;;;5.27;100.00;101456.38;5019676;28;20200;-70
2024/01/23 09:48:37;;;;;;;6.67;1.50;;;;;;;5.31;100.00;101452.97;5018721;28;20273;-69
2024/01/23 09:51:13;;;;;;;4.77;1.97;;;;;;;5.36;100.00;101468.66;5014687;28;20207;-69
2024/01/23 09:53:41;;;;;;;4.00;2.10;;;;;;;5.40;100.00;101471.53;5017985;28;20248;-70
2024/01/23 09:56:08;;;;;;;3.30;1.50;;;;;;;5.42;100.00;101485.91;5015347;28;20208;-70
2024/01/23 09:58:36;;;;;;;3.20;1.50;;;;;;;5.46;100.00;101476.47;5018867;28;20201;-69
2024/01/23 10:01:03;;;;;;;4.97;1.20;;;;;;;5.48;100.00;101479.59;5017239;28;20236;-68
2024/01/23 10:03:32;;;;;;;4.77;1.30;;;;;;;5.51;100.00;101497.41;5016494;28;20217;-69
2024/01/23 10:05:59;;;;;;;6.47;1.77;;;;;;;5.52;100.00;101491.09;5017679;28;20246;-69
2024/01/23 10:08:26;;;;;;;4.07;1.10;;;;;;;5.56;100.00;101486.09;5022428;28;20230;-70
2024/01/23 10:10:57;;;;;;;5.17;1.60;;;;;;;5.58;100.00;101484.00;5015450;28;20217;-70
2024/01/23 10:13:24;;;;;;;4.73;1.67;;;;;;;5.61;100.00;101491.31;5016456;28;20286;-68
2024/01/23 10:15:53;;;;;;;6.87;1.87;;;;;;;5.64;100.00;101511.75;5016986;28;20231;-70
2024/01/23 10:18:21;;;;;;;5.07;1.30;;;;;;;5.65;100.00;101514.09;5016174;28;20204;-68
2024/01/23 10:20:48;;;;;;;4.80;1.40;;;;;;;5.68;100.00;101504.91;5015084;28;20211;-68
2024/01/23 10:23:14;;;;;;;5.77;1.53;;;;;;;5.70;100.00;101482.63;5021058;28;20227;-70
2024/01/23 10:25:42;;;;;;;3.17;1.50;;;;;;;5.72;100.00;101493.63;5016588;28;20207;-69
2024/01/23 10:28:09;;;;;;;5.10;1.30;;;;;;;5.74;100.00;101490.72;5018494;28;20212;-69
2024/01/23 10:30:36;;;;;;;5.87;1.17;;;;;;;5.77;100.00;101482.31;5019314;28;20208;-68
2024/01/23 10:33:04;;;;;;;7.57;1.60;;;;;;;5.78;100.00;101487.28;5017375;28;20895;-70
2024/01/23 10:35:33;;;;;;;5.33;1.40;;;;;;;5.86;100.00;101478.09;5016210;28;20211;-70
2024/01/23 10:38:00;;;;;;;8.17;1.63;;;;;;;5.93;100.00;101495.09;5016265;28;20196;-69
2024/01/23 10:40:27;;;;;;;7.67;1.80;;;;;;;6.00;100.00;101486.94;5016668;28;20236;-68
2024/01/23 10:42:56;;;;;;;5.03;1.60;;;;;;;6.03;100.00;101481.94;5018545;28;20315;-70
2024/01/23 10:45:23;;;;;;;5.10;1.90;;;;;;;6.10;100.00;101486.84;5017974;28;20226;-70
2024/01/23 10:47:51;;;;;;;7.30;1.67;;;;;;;6.14;100.00;101488.66;5016102;28;21138;-69
2024/01/23 10:50:19;;;;;;;4.87;1.80;;;;;;;6.20;100.00;101495.44;5018702;28;20681;-69
2024/01/23 10:52:48;;;;;;;4.50;1.47;;;;;;;6.25;100.00;101507.72;5019260;28;20594;-69
2024/01/23 10:55:16;;;;;;;6.17;1.50;;;;;;;6.28;100.00;101507.97;5019289;28;20216;-70
2024/01/23 10:57:47;;;;;;;4.73;1.30;;;;;;;6.29;100.00;101499.03;5018796;28;20557;-70
2024/01/23 11:00:18;;;;;;;5.77;1.57;;;;;;;6.33;100.00;101505.28;5018657;28;20212;-70
2024/01/23 11:02:48;;;;;;;5.93;1.83;;;;;;;6.35;100.00;101500.56;5020164;28;20227;-70
2024/01/23 11:05:14;;;;;;;4.07;1.70;;;;;;;6.38;100.00;101502.63;5018743;28;20200;-69
2024/01/23 11:07:46;;;;;;;9.87;1.73;;;;;;;6.40;100.00;101513.63;5019633;28;20200;-68
2024/01/23 11:10:23;;;;;;;8.23;2.07;;;;;;;6.45;100.00;101508.34;5017450;28;20208;-68
2024/01/23 11:13:00;;;;;;;6.27;1.77;;;;;;;6.49;100.00;101513.81;5017626;28;20223;-70
2024/01/23 11:15:28;;;;;;;4.13;1.30;;;;;;;6.52;100.00;101505.41;5020007;28;20208;-70
2024/01/23 11:17:54;;;;;;;4.37;1.60;;;;;;;6.53;100.00;101510.34;5016829;28;20569;-70
2024/01/23 11:20:20;;;;;;;6.20;1.90;;;;;;;6.54;100.00;101508.53;5020319;28;20211;-69
2024/01/23 11:22:47;;;;;;;5.07;1.40;;;;;;;6.54;100.00;101514.56;5014462;28;20753;-70